createdAt,value
2018-02-20T00:01:04.651Z,19.30
2018-02-20T00:03:32.188Z,19.40
2018-02-20T00:06:00.516Z,19.30
2018-02-20T00:08:28.053Z,19.30
2018-02-20T00:10:55.604Z,19.30
2018-02-20T00:13:30.498Z,19.30
2018-02-20T00:15:58.035Z,19.30
2018-02-20T00:18:25.580Z,19.20
2018-02-20T00:20:53.143Z,19.20
2018-02-20T00:23:20.689Z,19.20
2018-02-20T00:26:09.442Z,19.20
2018-02-20T00:28:36.990Z,19.20
2018-02-20T00:31:04.550Z,19.20
2018-02-20T00:33:32.926Z,19.20
2018-02-20T00:36:00.473Z,19.10
2018-02-20T00:38:28.782Z,19.10
2018-02-20T00:40:56.349Z,19.10
2018-02-20T00:43:23.895Z,19.00
2018-02-20T00:45:51.436Z,19.00
2018-02-20T00:48:19.750Z,19.00
2018-02-20T00:50:54.341Z,19.00
2018-02-20T00:53:21.891Z,19.00
2018-02-20T00:55:50.196Z,19.00
2018-02-20T00:58:17.738Z,19.00
2018-02-20T01:00:46.142Z,19.00
2018-02-20T01:03:13.682Z,18.90
2018-02-20T01:05:48.367Z,18.90
2018-02-20T01:08:15.901Z,18.90
2018-02-20T01:10:43.440Z,18.90
2018-02-20T01:13:10.996Z,18.90
2018-02-20T01:15:38.530Z,18.90
2018-02-20T01:18:27.113Z,18.80
2018-02-20T01:20:54.659Z,18.80
2018-02-20T01:23:23.712Z,18.80
2018-02-20T01:25:51.286Z,18.80
2018-02-20T01:30:51.665Z,18.70
2018-02-20T01:33:19.205Z,18.80
2018-02-20T01:35:47.502Z,18.70
2018-02-20T01:38:15.053Z,18.70
2018-02-20T01:40:43.350Z,18.70
2018-02-20T01:43:11.649Z,18.70
2018-02-20T01:45:39.191Z,18.70
2018-02-20T01:48:06.731Z,18.70
2018-02-20T01:50:35.036Z,18.70
2018-02-20T01:53:02.597Z,18.70
2018-02-20T01:55:50.903Z,18.60
2018-02-20T01:58:19.231Z,18.60
2018-02-20T02:00:46.762Z,18.60
2018-02-20T02:03:15.168Z,18.60
2018-02-20T02:05:42.745Z,18.60
2018-02-20T02:08:27.527Z,18.50
2018-02-20T02:10:55.068Z,18.60
2018-02-20T02:13:23.255Z,18.50
2018-02-20T02:15:50.793Z,18.50
2018-02-20T02:18:18.333Z,18.50
2018-02-20T02:20:45.878Z,18.50
2018-02-20T02:23:14.174Z,18.40
2018-02-20T02:25:41.735Z,18.40
2018-02-20T02:28:09.268Z,18.40
2018-02-20T02:30:37.579Z,18.40
2018-02-20T02:33:12.716Z,18.40
2018-02-20T02:35:40.244Z,18.40
2018-02-20T02:38:08.539Z,18.40
2018-02-20T02:40:36.101Z,18.40
2018-02-20T02:43:03.644Z,18.40
2018-02-20T02:45:53.347Z,18.30
2018-02-20T02:48:20.909Z,18.30
2018-02-20T02:50:48.465Z,18.30
2018-02-20T02:53:16.543Z,18.30
2018-02-20T02:55:44.076Z,18.30
2018-02-20T02:58:29.741Z,18.30
2018-02-20T03:00:57.274Z,18.30
2018-02-20T03:03:25.458Z,18.30
2018-02-20T03:05:53.027Z,18.30
2018-02-20T03:08:20.569Z,18.30
2018-02-20T03:10:48.095Z,18.20
2018-02-20T03:13:15.656Z,18.20
2018-02-20T03:15:43.200Z,18.20
2018-02-20T03:18:11.507Z,18.20
2018-02-20T03:20:39.072Z,18.20
2018-02-20T03:23:15.401Z,18.20
2018-02-20T03:25:43.732Z,18.20
2018-02-20T03:28:11.271Z,18.10
2018-02-20T03:30:38.809Z,18.20
2018-02-20T03:33:06.368Z,18.10
2018-02-20T03:35:56.237Z,18.10
2018-02-20T03:38:24.566Z,18.10
2018-02-20T03:40:52.105Z,18.10
2018-02-20T03:43:19.983Z,18.10
2018-02-20T03:45:47.579Z,18.00
2018-02-20T03:48:36.459Z,18.00
2018-02-20T03:51:04.767Z,18.00
2018-02-20T03:53:32.950Z,18.00
2018-02-20T03:56:00.504Z,18.00
2018-02-20T03:58:28.071Z,18.00
2018-02-20T04:00:55.614Z,18.00
2018-02-20T04:04:09.060Z,18.00
2018-02-20T04:06:36.624Z,18.00
2018-02-20T04:09:04.178Z,18.00
2018-02-20T04:11:31.725Z,17.90
2018-02-20T04:14:00.040Z,17.90
2018-02-20T04:16:27.587Z,17.90
2018-02-20T04:22:25.873Z,17.90
2018-02-20T04:24:54.190Z,17.90
2018-02-20T04:27:21.741Z,17.80
2018-02-20T04:29:49.288Z,17.90
2018-02-20T04:32:16.847Z,17.90
2018-02-20T04:34:44.386Z,18.00
2018-02-20T04:37:12.681Z,18.10
2018-02-20T04:39:40.236Z,18.10
2018-02-20T04:42:07.780Z,18.20
2018-02-20T04:44:40.063Z,18.30
2018-02-20T04:47:07.608Z,18.30
2018-02-20T04:49:35.906Z,18.40
2018-02-20T04:52:03.469Z,18.40
2018-02-20T04:54:30.996Z,18.50
2018-02-20T04:57:26.951Z,18.70
2018-02-20T04:59:55.135Z,18.60
2018-02-20T05:02:22.684Z,18.70
2018-02-20T05:04:50.242Z,18.80
2018-02-20T05:07:44.507Z,18.90
2018-02-20T05:10:12.933Z,19.10
2018-02-20T05:12:40.477Z,19.10
2018-02-20T05:15:08.040Z,19.10
2018-02-20T05:17:35.593Z,19.10
2018-02-20T05:20:03.142Z,19.10
2018-02-20T05:22:31.450Z,19.10
2018-02-20T05:24:59.024Z,19.10
2018-02-20T05:27:26.587Z,19.10
2018-02-20T05:29:54.135Z,19.00
2018-02-20T05:32:21.695Z,19.00
2018-02-20T05:34:49.253Z,19.00
2018-02-20T05:37:16.807Z,19.00
2018-02-20T05:39:44.365Z,19.00
2018-02-20T05:42:11.911Z,19.00
2018-02-20T05:44:39.453Z,19.00
2018-02-20T05:47:07.785Z,19.00
2018-02-20T05:49:35.331Z,19.00
2018-02-20T05:52:02.873Z,19.10
2018-02-20T05:54:30.432Z,19.10
2018-02-20T05:56:57.971Z,19.20
2018-02-20T05:59:29.299Z,19.20
2018-02-20T06:01:56.853Z,19.20
2018-02-20T06:04:24.441Z,19.20
2018-02-20T06:06:52.746Z,19.20
2018-02-20T06:09:20.303Z,19.10
2018-02-20T06:11:47.852Z,19.10
2018-02-20T06:14:19.553Z,19.20
2018-02-20T06:16:47.086Z,19.10
2018-02-20T06:19:14.628Z,19.10
2018-02-20T06:21:42.955Z,19.20
2018-02-20T06:24:10.552Z,19.10
2018-02-20T06:26:38.097Z,19.20
2018-02-20T06:29:05.832Z,19.20
2018-02-20T06:31:33.385Z,19.20
2018-02-20T06:34:00.952Z,19.20
2018-02-20T06:36:28.520Z,19.30
2018-02-20T06:38:56.074Z,19.30
2018-02-20T06:41:23.614Z,19.20
2018-02-20T06:43:51.185Z,19.20
2018-02-20T06:46:18.746Z,19.20
2018-02-20T06:48:46.286Z,19.30
2018-02-20T06:51:14.673Z,19.20
2018-02-20T06:53:55.267Z,19.20
2018-02-20T06:56:23.285Z,19.20
2018-02-20T06:58:51.661Z,19.20
2018-02-20T07:01:19.964Z,19.30
2018-02-20T07:03:47.533Z,19.30
2018-02-20T07:06:37.067Z,19.30
2018-02-20T07:09:04.627Z,19.40
2018-02-20T07:11:32.195Z,19.40
2018-02-20T07:14:00.514Z,19.60
2018-02-20T07:16:28.104Z,19.60
2018-02-20T07:18:55.652Z,19.70
2018-02-20T07:21:23.199Z,19.70
2018-02-20T07:23:50.762Z,19.70
2018-02-20T07:26:18.313Z,19.80
2018-02-20T07:28:45.922Z,19.70
2018-02-20T07:31:21.407Z,19.80
2018-02-20T07:33:48.956Z,19.80
2018-02-20T07:36:17.277Z,19.70
2018-02-20T07:38:44.846Z,19.70
2018-02-20T07:41:12.384Z,19.70
2018-02-20T07:43:39.937Z,19.70
2018-02-20T07:46:07.529Z,19.70
2018-02-20T07:48:35.090Z,19.70
2018-02-20T07:51:02.634Z,19.80
2018-02-20T07:53:30.194Z,19.80
2018-02-20T07:55:57.737Z,19.80
2018-02-20T07:58:25.278Z,19.80
2018-02-20T08:00:53.609Z,19.90
2018-02-20T08:03:21.165Z,19.80
2018-02-20T08:05:48.708Z,19.90
2018-02-20T08:08:16.272Z,20.00
2018-02-20T08:10:43.811Z,20.00
2018-02-20T08:13:11.350Z,20.00
2018-02-20T08:15:39.680Z,20.20
2018-02-20T08:18:07.217Z,20.10
2018-02-20T08:20:34.766Z,20.20
2018-02-20T08:23:02.329Z,20.20
2018-02-20T08:25:29.866Z,20.20
2018-02-20T08:27:58.178Z,20.00
2018-02-20T08:30:47.494Z,20.00
2018-02-20T08:33:15.021Z,20.00
2018-02-20T08:35:43.043Z,19.90
2018-02-20T08:38:11.362Z,19.80
2018-02-20T08:40:38.903Z,19.80
2018-02-20T08:43:06.439Z,19.80
2018-02-20T08:45:33.998Z,19.80
2018-02-20T08:51:37.677Z,19.90
2018-02-20T08:57:27.705Z,20.00
2018-02-20T08:59:55.242Z,20.00
2018-02-20T09:05:44.479Z,20.00
2018-02-20T09:08:12.014Z,20.00
2018-02-20T09:14:02.087Z,20.10
2018-02-20T09:16:29.636Z,20.10
2018-02-20T09:22:23.167Z,20.20
2018-02-20T09:24:50.919Z,20.10
2018-02-20T09:27:19.281Z,20.10
2018-02-20T09:30:00.858Z,20.20
2018-02-20T09:32:29.164Z,20.30
2018-02-20T09:34:56.782Z,20.20
2018-02-20T09:37:25.133Z,20.20
2018-02-20T09:39:52.711Z,20.20
2018-02-20T09:42:33.205Z,20.10
2018-02-20T09:45:01.967Z,20.10
2018-02-20T09:47:29.512Z,20.10
2018-02-20T09:53:18.462Z,20.10
2018-02-20T09:55:45.999Z,20.00
2018-02-20T10:01:36.455Z,20.00
2018-02-20T10:04:04.004Z,20.00
2018-02-20T10:07:20.392Z,20.00
2018-02-20T10:09:48.009Z,20.00
2018-02-20T10:12:15.550Z,20.00
2018-02-20T10:18:05.438Z,20.00
2018-02-20T10:23:54.344Z,20.00
2018-02-20T10:27:00.424Z,20.00
2018-02-20T10:36:11.700Z,20.00
2018-02-20T10:38:51.949Z,20.00
2018-02-20T10:42:08.484Z,20.00
2018-02-20T10:44:36.798Z,20.00
2018-02-20T10:53:26.542Z,20.00
2018-02-20T10:55:54.086Z,20.00
2018-02-20T10:58:21.625Z,20.00
2018-02-20T11:00:49.962Z,20.10
2018-02-20T11:03:18.262Z,20.10
2018-02-20T11:05:59.101Z,20.10
2018-02-20T11:08:26.755Z,20.20
2018-02-20T11:10:54.297Z,20.20
2018-02-20T11:13:22.743Z,20.20
2018-02-20T11:16:25.577Z,20.30
2018-02-20T11:18:53.135Z,20.30
2018-02-20T11:24:45.911Z,20.60
2018-02-20T11:27:13.459Z,20.60
2018-02-20T11:33:01.996Z,20.60
2018-02-20T11:35:29.553Z,20.60
2018-02-20T11:41:18.774Z,20.50
2018-02-20T11:43:46.347Z,20.50
2018-02-20T11:46:13.891Z,20.50
2018-02-20T11:48:41.441Z,20.50
2018-02-20T11:51:09.753Z,20.50
2018-02-20T11:53:58.374Z,20.40
2018-02-20T11:56:26.679Z,20.30
2018-02-20T11:58:54.268Z,20.30
2018-02-20T12:01:22.686Z,20.30
2018-02-20T12:04:21.031Z,20.30
2018-02-20T12:06:48.696Z,20.30
2018-02-20T12:09:16.251Z,20.20
2018-02-20T12:11:44.417Z,20.20
2018-02-20T12:14:11.973Z,20.20
2018-02-20T12:16:39.515Z,20.30
2018-02-20T12:19:07.072Z,20.30
2018-02-20T12:21:34.650Z,20.30
2018-02-20T12:27:23.756Z,20.30
2018-02-20T12:33:13.373Z,20.50
2018-02-20T12:40:09.200Z,20.60
2018-02-20T12:42:36.752Z,20.60
2018-02-20T12:45:04.302Z,20.60
2018-02-20T12:47:31.853Z,20.60
2018-02-20T12:50:13.755Z,20.60
2018-02-20T12:52:41.860Z,20.60
2018-02-20T12:55:09.413Z,20.60
2018-02-20T12:57:36.966Z,20.50
2018-02-20T13:00:05.453Z,20.50
2018-02-20T13:02:33.013Z,20.50
2018-02-20T13:05:00.567Z,20.50
2018-02-20T13:07:28.129Z,20.50
2018-02-20T13:09:55.730Z,20.50
2018-02-20T13:12:24.064Z,20.50
2018-02-20T13:14:51.609Z,20.50
2018-02-20T13:17:19.696Z,20.60
2018-02-20T13:19:47.236Z,20.60
2018-02-20T13:22:14.792Z,20.70
2018-02-20T13:24:43.118Z,20.80
2018-02-20T13:27:46.953Z,20.80
2018-02-20T13:30:14.507Z,20.80
2018-02-20T13:32:42.049Z,20.80
2018-02-20T13:35:09.688Z,20.80
2018-02-20T13:38:11.794Z,20.80
2018-02-20T13:40:39.357Z,20.70
2018-02-20T13:43:06.920Z,20.70
2018-02-20T13:45:34.465Z,20.70
2018-02-20T13:48:02.026Z,20.60
2018-02-20T13:50:43.542Z,20.60
2018-02-20T13:53:11.103Z,20.60
2018-02-20T13:55:38.647Z,20.50
2018-02-20T13:58:06.201Z,20.50
2018-02-20T14:01:02.266Z,20.50
2018-02-20T14:03:30.600Z,20.60
2018-02-20T14:05:58.161Z,20.60
2018-02-20T14:08:25.713Z,20.60
2018-02-20T14:10:53.892Z,20.60
2018-02-20T14:13:39.048Z,20.60
2018-02-20T14:16:06.591Z,20.60
2018-02-20T14:18:34.137Z,20.60
2018-02-20T14:21:03.010Z,20.70
2018-02-20T14:24:05.364Z,20.60
2018-02-20T14:26:32.910Z,20.60
2018-02-20T14:29:00.463Z,20.60
2018-02-20T14:31:28.013Z,20.60
2018-02-20T14:34:30.446Z,20.60
2018-02-20T14:36:57.985Z,20.50
2018-02-20T14:42:55.089Z,20.50
2018-02-20T14:48:37.551Z,20.50
2018-02-20T14:51:05.092Z,20.50
2018-02-20T14:53:33.394Z,20.60
2018-02-20T14:56:25.514Z,20.50
2018-02-20T14:58:53.823Z,20.50
2018-02-20T15:01:21.377Z,20.50
2018-02-20T15:03:48.923Z,20.50
2018-02-20T15:06:51.560Z,20.50
2018-02-20T15:09:19.118Z,20.50
2018-02-20T15:11:46.655Z,20.50
2018-02-20T15:14:14.199Z,20.50
2018-02-20T15:17:16.664Z,20.50
2018-02-20T15:19:44.203Z,20.50
2018-02-20T15:22:12.956Z,20.50
2018-02-20T15:24:40.505Z,20.50
2018-02-20T15:27:42.885Z,20.50
2018-02-20T15:30:10.459Z,20.50
2018-02-20T15:32:37.997Z,20.40
2018-02-20T15:35:05.533Z,20.40
2018-02-20T15:38:08.007Z,20.50
2018-02-20T15:40:35.576Z,20.50
2018-02-20T15:43:03.124Z,20.60
2018-02-20T15:45:30.684Z,20.70
2018-02-20T15:47:59.006Z,20.70
2018-02-20T15:50:41.059Z,20.70
2018-02-20T15:53:09.423Z,20.70
2018-02-20T15:55:37.745Z,20.70
2018-02-20T15:58:05.299Z,20.60
2018-02-20T16:00:32.839Z,20.70
2018-02-20T16:03:00.386Z,20.60
2018-02-20T16:05:28.716Z,20.60
2018-02-20T16:07:56.267Z,20.60
2018-02-20T16:10:23.807Z,20.60
2018-02-20T16:12:51.350Z,20.60
2018-02-20T16:15:19.663Z,20.50
2018-02-20T16:17:47.190Z,20.50
2018-02-20T16:20:15.526Z,20.50
2018-02-20T16:22:43.062Z,20.50
2018-02-20T16:25:10.604Z,20.60
2018-02-20T16:27:38.167Z,20.60
2018-02-20T16:30:05.710Z,20.70
2018-02-20T16:32:34.010Z,20.90
2018-02-20T16:35:01.563Z,20.80
2018-02-20T16:37:29.152Z,20.90
2018-02-20T16:39:56.691Z,21.00
2018-02-20T16:42:24.271Z,21.00
2018-02-20T16:44:51.820Z,21.10
2018-02-20T16:47:19.362Z,21.10
2018-02-20T16:49:46.917Z,21.00
2018-02-20T16:52:15.212Z,21.00
2018-02-20T16:54:42.747Z,21.00
2018-02-20T16:57:11.070Z,20.90
2018-02-20T16:59:38.656Z,20.90
2018-02-20T17:02:06.164Z,20.90
2018-02-20T17:04:33.712Z,20.90
2018-02-20T17:07:02.014Z,20.90
2018-02-20T17:09:29.569Z,20.80
2018-02-20T17:11:57.141Z,20.80
2018-02-20T17:14:24.678Z,20.80
2018-02-20T17:16:52.226Z,20.80
2018-02-20T17:19:20.561Z,20.80
2018-02-20T17:21:48.111Z,20.80
2018-02-20T17:24:15.658Z,20.90
2018-02-20T17:26:43.232Z,20.90
2018-02-20T17:29:10.838Z,20.90
2018-02-20T17:31:39.162Z,20.90
2018-02-20T17:34:06.784Z,20.90
2018-02-20T17:36:35.097Z,20.90
2018-02-20T17:39:02.703Z,20.90
2018-02-20T17:41:30.224Z,20.90
2018-02-20T17:43:57.760Z,20.90
2018-02-20T17:46:47.685Z,20.80
2018-02-20T17:49:15.648Z,20.80
2018-02-20T17:51:43.197Z,20.80
2018-02-20T17:54:10.751Z,20.70
2018-02-20T17:56:38.295Z,20.70
2018-02-20T17:59:05.829Z,20.70
2018-02-20T18:01:34.162Z,20.70
2018-02-20T18:04:01.735Z,20.70
2018-02-20T18:06:29.286Z,20.70
2018-02-20T18:08:56.850Z,20.70
2018-02-20T18:11:24.403Z,20.80
2018-02-20T18:13:51.962Z,20.80
2018-02-20T18:16:19.530Z,21.00
2018-02-20T18:18:47.079Z,21.10
2018-02-20T18:21:14.870Z,21.10
2018-02-20T18:23:42.430Z,21.10
2018-02-20T18:26:09.978Z,21.10
2018-02-20T18:28:37.525Z,21.10
2018-02-20T18:31:05.109Z,21.10
2018-02-20T18:33:32.658Z,21.00
2018-02-20T18:36:00.214Z,21.10
2018-02-20T18:38:27.784Z,21.00
2018-02-20T18:40:55.334Z,21.00
2018-02-20T18:43:22.873Z,21.00
2018-02-20T18:45:50.432Z,21.00
2018-02-20T18:48:17.988Z,20.90
2018-02-20T18:50:45.541Z,20.90
2018-02-20T18:53:13.106Z,21.00
2018-02-20T18:55:41.406Z,21.00
2018-02-20T18:58:08.943Z,21.00
2018-02-20T19:00:37.256Z,21.00
2018-02-20T19:03:04.818Z,20.90
2018-02-20T19:05:32.385Z,20.90
2018-02-20T19:08:00.721Z,20.90
2018-02-20T19:10:28.278Z,20.90
